Terminal Aerodrome Forecast
Issued by NWS

Home | Current Version | Previous Version | Text Only | Print | Product List | Glossary On
Versions: 1 2 3 4 5 6 7 8 9 10 11 12
000
FTUS44 KEPZ 270500
TAFTCS
TAF
KTCS 270530Z 2706/2806 31006KT P6SM VCSH SCT050 BKN090 OVC200
      TEMPO 2709/2713 6SM -SHRA BKN030 OVC090
     FM271300 12005KT P6SM FEW025 BKN030 OVC090
     FM272100 17007KT P6SM SCT040 BKN090 BKN180
     FM280200 28005KT P6SM SCT040 BKN090 BKN180=

USA.gov is the U.S. government's official web portal to all federal, state and local government web resources and services.